Data for 06/27/2015

Time Sea-Level Adjusted Pressure Absolute Pressure Temperature Relative Humidity Dew Point   
(mb) (inHg) (mb) (inHg) (C) (F) (%) (C) (F)
00:05 1023 30.21 852 25.16 19.7 67.4 36 4.3 39.7
00:10 1023 30.21 852 25.16 19.8 67.6 36 4.3 39.7
00:15 1023 30.21 852 25.16 19.6 67.3 37 4.8 40.7
00:20 1023 30.21 852 25.16 19.5 67.1 37 4.7 40.4
00:25 1023 30.21 852 25.16 19.7 67.4 38 5 41
00:30 1023 30.21 852 25.16 19.6 67.2 37 4.6 40.4
00:35 1023 30.21 852 25.16 19.6 67.3 36 4.3 39.7
00:40 1023 30.21 852 25.16 19.8 67.6 36 4.5 40
00:45 1023 30.21 852 25.16 19.7 67.4 37 4.6 40.3
00:50 1023 30.21 852 25.16 19.6 67.2 38 5 41
00:55 1023 30.21 852 25.16 19.4 66.9 37 4.4 39.9
01:00 1023 30.21 852 25.16 19.4 66.9 36 4.2 39.5
01:05 1023 30.21 852 25.16 19.4 67 38 4.8 40.6
01:10 1023 30.21 852 25.16 19.4 66.9 37 4.4 39.9
01:15 1023 30.21 852 25.16 19.7 67.5 37 4.8 40.6
01:20 1023 30.21 852 25.16 20.1 68.2 36 4.8 40.7
01:25 1023 30.21 852 25.16 20.1 68.2 34 3.9 38.9
01:30 1023 30.21 852 25.16 20 68.1 33 3.5 38.4
01:35 1023 30.21 852 25.16 19.9 67.8 33 3.4 38.1
01:40 1023 30.21 852 25.16 19.9 67.8 33 3.2 37.8
01:45 1023 30.21 852 25.16 20 68.1 32 3.1 37.5
01:50 1023 30.21 852 25.16 20 68 34 3.6 38.5
01:55 1023 30.21 852 25.16 19.9 67.7 33 3.2 37.7
02:00 1023 30.21 852 25.16 20.4 68.7 33 3.8 38.8
02:05 1023 30.21 852 25.16 20.2 68.3 36 4.7 40.5
02:10 1023 30.21 852 25.16 19.7 67.5 36 4.5 40.1
02:15 1023 30.21 852 25.16 19.3 66.7 37 4.3 39.8
02:20 1023 30.21 852 25.16 18.5 65.3 40 4.6 40.3
02:25 1023 30.21 852 25.16 18.1 64.5 40 4.5 40
02:30 1023 30.21 852 25.16 18 64.3 39 4 39.1
02:35 1023 30.21 852 25.16 17.9 64.3 38 3.6 38.5
02:40 1023 30.21 852 25.16 18.2 64.8 38 3.7 38.6
02:45 1023 30.21 852 25.16 18.2 64.8 37 3.5 38.3
02:50 1023 30.21 852 25.16 18.1 64.7 37 3.5 38.3
02:55 1023 30.21 853 25.19 18.4 65 36 3.2 37.7
03:00 1023 30.21 853 25.19 18.8 65.8 36 3.6 38.4
03:05 1023 30.21 853 25.19 18.7 65.7 36 3.5 38.4
03:10 1023 30.21 853 25.19 18.6 65.5 35 3 37.5
03:15 1023 30.21 853 25.19 18.9 66.1 36 3.5 38.4
03:20 1023 30.21 853 25.19 19.1 66.3 36 3.7 38.6
03:25 1023 30.21 853 25.19 19 66.1 36 3.8 38.8
03:30 1023 30.21 853 25.19 18.6 65.5 37 4 39.1
03:35 1023 30.21 853 25.19 17.8 64 39 3.7 38.6
03:40 1023 30.21 853 25.19 17.7 63.8 38 3.2 37.7
03:45 1023 30.21 853 25.19 17.9 64.2 39 3.8 38.9
03:50 1023 30.21 853 25.19 17.5 63.5 39 3.4 38.1
03:55 1023 30.21 853 25.19 17.5 63.5 40 3.9 39
04:00 1023 30.21 853 25.19 17 62.6 41 3.9 38.9
04:05 1023 30.21 853 25.19 17.3 63.2 36 2.4 36.3
04:10 1023 30.21 853 25.19 18.4 65.1 35 3 37.3
04:15 1023 30.21 853 25.19 18.1 64.6 38 3.6 38.5
04:20 1023 30.21 853 25.19 17.5 63.5 39 3.6 38.6
04:25 1023 30.21 853 25.19 17.3 63.1 39 3.3 37.9
04:30 1023 30.21 853 25.19 17.5 63.4 37 2.9 37.2
04:35 1023 30.21 853 25.19 17.7 63.9 38 3.3 38
04:40 1023 30.21 853 25.19 17.7 63.9 35 2.4 36.3
04:45 1023 30.21 853 25.19 18.2 64.8 37 3.3 37.9
04:50 1023 30.21 853 25.19 17.9 64.2 38 3.5 38.3
04:55 1023 30.21 853 25.19 17.5 63.5 40 3.7 38.7
05:00 1023 30.21 853 25.19 17.4 63.3 44 5.1 41.1
05:05 1024 30.24 853 25.19 17.3 63.1 40 3.6 38.5
05:10 1024 30.24 853 25.19 17.6 63.7 38 3.2 37.8
05:15 1024 30.24 853 25.19 17.8 64 38 3.5 38.2
05:20 1024 30.24 853 25.19 17.8 64 38 3.5 38.3
05:25 1024 30.24 853 25.19 17.9 64.2 38 3.6 38.5
05:30 1024 30.24 853 25.19 18 64.4 37 3.4 38.1
05:35 1024 30.24 853 25.19 18.1 64.6 38 3.5 38.3
05:40 1024 30.24 853 25.19 18.3 64.9 38 3.8 38.8
05:45 1024 30.24 853 25.19 18.4 65.1 38 4 39.2
05:50 1024 30.24 853 25.19 18.4 65.1 39 4.2 39.6
05:55 1024 30.24 853 25.19 18.5 65.3 40 4.6 40.3
06:00 1024 30.24 853 25.19 18.5 65.3 40 4.7 40.5
06:05 1024 30.24 853 25.19 18.7 65.7 39 4.5 40.1
06:10 1024 30.24 853 25.19 18.9 66.1 39 5 40.9
06:15 1024 30.24 853 25.19 19.1 66.3 40 5.2 41.4
06:20 1024 30.24 853 25.19 19.4 66.9 38 4.9 40.7
06:25 1024 30.24 853 25.19 19.8 67.6 38 5.2 41.3
06:30 1024 30.24 853 25.19 20.1 68.2 37 5.1 41.2
06:35 1024 30.24 853 25.19 20.4 68.7 36 4.8 40.7
06:40 1024 30.24 853 25.19 20.4 68.8 36 5.2 41.3
06:45 1024 30.24 853 25.19 20.7 69.2 36 5.1 41.1
06:50 1024 30.24 853 25.19 21 69.8 36 5.7 42.2
06:55 1024 30.24 853 25.19 21.4 70.5 36 5.8 42.4
07:00 1024 30.24 853 25.19 21.8 71.2 35 5.9 42.5
07:05 1024 30.24 853 25.19 22.2 71.9 34 5.7 42.2
07:10 1024 30.24 853 25.19 22.6 72.7 33 5.9 42.6
07:15 1024 30.24 853 25.19 23.2 73.8 34 6.6 43.9
07:20 1024 30.24 853 25.19 22.5 72.6 36 6.9 44.4
07:25 1024 30.24 853 25.19 22.4 72.3 35 6.5 43.7
07:30 1024 30.24 853 25.19 22.6 72.8 35 6.5 43.7
07:35 1024 30.24 853 25.19 23.5 74.2 32 6.1 43
07:40 1024 30.24 853 25.19 24.2 75.5 31 6 42.8
07:45 1024 30.24 853 25.19 24.3 75.8 31 6.5 43.7
07:50 1024 30.24 853 25.19 24 75.2 32 6.4 43.6
07:55 1024 30.24 853 25.19 24.3 75.8 31 6.2 43.1
08:00 1024 30.24 853 25.19 23.9 74.9 32 6.2 43.1
08:05 1024 30.24 853 25.19 23.7 74.6 32 6.1 42.9
08:10 1024 30.24 853 25.19 23.6 74.5 32 6 42.7
08:15 1024 30.24 853 25.19 23.8 74.9 32 6.2 43.2
08:20 1024 30.24 853 25.19 24 75.2 31 5.8 42.5
08:25 1024 30.24 853 25.19 24.7 76.5 29 5.8 42.5
08:30 1024 30.24 853 25.19 24.6 76.3 30 5.9 42.6
08:35 1024 30.24 853 25.19 25.1 77.2 28 5.8 42.4
08:40 1024 30.24 853 25.19 25.3 77.5 30 6.6 44
08:45 1024 30.24 853 25.19 25.3 77.5 28 5.8 42.4
08:50 1024 30.24 853 25.19 25.8 78.5 28 6.2 43.1
08:55 1024 30.24 853 25.19 26.6 79.8 26 5.8 42.5
09:00 1024 30.24 853 25.19 26.9 80.4 27 6.5 43.7
09:05 1024 30.24 853 25.19 27.3 81.1 25 5.7 42.3
09:10 1024 30.24 853 25.19 27.2 81 27 6.6 44
09:15 1024 30.24 853 25.19 26.3 79.4 28 6.4 43.5
09:20 1024 30.24 853 25.19 26.2 79.2 26 5.5 41.8
09:25 1024 30.24 853 25.19 26.7 80.1 26 5.7 42.2
09:30 1024 30.24 853 25.19 26 78.7 28 6.3 43.3
09:35 1024 30.24 853 25.19 25.9 78.6 28 6.3 43.3
09:40 1024 30.24 853 25.19 26.5 79.7 28 6.7 44.1
09:45 1024 30.24 853 25.19 26.7 80 28 6.7 44.1
09:50 1024 30.24 853 25.19 27 80.6 27 6.5 43.7
09:55 1024 30.24 853 25.19 28 82.3 26 6.7 44.1
10:00 1024 30.24 853 25.19 28.6 83.4 24 6.1 43
10:05 1023 30.21 853 25.19 28.9 83.9 25 7 44.6
10:10 1023 30.21 853 25.19 29.2 84.5 23 6.1 42.9
10:15 1024 30.24 853 25.19 28.6 83.5 24 6.4 43.5
10:20 1023 30.21 853 25.19 28 82.5 23 5.3 41.6
10:25 1023 30.21 853 25.19 28.2 82.8 23 5.5 41.8
10:30 1023 30.21 853 25.19 28.9 84 22 5.6 42.1
10:35 1023 30.21 853 25.19 29.9 85.9 21 5.8 42.4
10:40 1023 30.21 853 25.19 30.1 86.2 21 5.9 42.6
10:45 1023 30.21 853 25.19 29.8 85.7 23 6.6 43.9
10:50 1023 30.21 852 25.16 29.9 85.8 22 6 42.8
10:55 1023 30.21 852 25.16 28.7 83.7 23 5.8 42.4
11:00 1023 30.21 852 25.16 29.4 84.9 21 5.4 41.6
11:05 1023 30.21 852 25.16 29.8 85.6 20 5.1 41.2
11:10 1023 30.21 852 25.16 30.2 86.4 20 5.2 41.4
11:15 1023 30.21 852 25.16 30.3 86.6 21 5.9 42.7
11:20 1023 30.21 852 25.16 30.7 87.3 20 5.8 42.5
11:25 1023 30.21 852 25.16 30.5 86.9 21 5.8 42.4
11:30 1023 30.21 852 25.16 31 87.9 18 4.5 40.1
11:35 1023 30.21 852 25.16 30.4 86.6 19 4.6 40.4
11:40 1023 30.21 852 25.16 30.9 87.6 19 5 41
11:45 1023 30.21 852 25.16 31.9 89.5 17 4.5 40.2
11:50 1023 30.21 852 25.16 32.4 90.3 18 5.2 41.4
11:55 1023 30.21 852 25.16 31.9 89.4 19 5.5 41.9
12:00 1023 30.21 852 25.16 31.8 89.2 18 4.7 40.5
12:05 1023 30.21 852 25.16 31.6 89 17 3.8 38.9
12:10 1023 30.21 852 25.16 32 89.7 18 5 41
12:15 1023 30.21 852 25.16 31.5 88.7 18 4.4 39.9
12:20 1023 30.21 852 25.16 33 91.5 17 4.8 40.7
12:25 1022 30.18 852 25.16 32.8 91 17 5.1 41.2
12:30 1022 30.18 852 25.16 32.2 90 18 5.3 41.5
12:35 1022 30.18 852 25.16 31.9 89.4 17 4.2 39.6
12:40 1022 30.18 852 25.16 32.9 91.2 15 3.6 38.5
12:45 1022 30.18 851 25.13 33.2 91.8 16 4 39.2
12:50 1022 30.18 851 25.13 33.5 92.3 15 3.9 39.1
12:55 1022 30.18 851 25.13 32.7 90.9 15 2.8 37.1
13:00 1022 30.18 851 25.13 33.5 92.3 14 3.1 37.6
13:05 1022 30.18 851 25.13 34.2 93.5 13 2.4 36.4
13:10 1022 30.18 851 25.13 33.5 92.2 13 1.7 35.1
13:15 1022 30.18 851 25.13 34.3 93.7 12 1.7 35.1
13:20 1022 30.18 851 25.13 34.3 93.8 12 1.7 35
13:25 1022 30.18 851 25.13 34.9 94.8 12 1.9 35.4
13:30 1022 30.18 851 25.13 35.2 95.3 12 2.4 36.2
13:35 1022 30.18 851 25.13 34.7 94.4 14 3.2 37.8
13:40 1022 30.18 851 25.13 34.6 94.3 14 3.2 37.7
13:45 1022 30.18 851 25.13 34.8 94.6 13 2.7 36.9
13:50 1022 30.18 851 25.13 35 94.9 13 2.9 37.1
13:55 1022 30.18 851 25.13 35 95 13 2.9 37.3
14:00 1022 30.18 851 25.13 35 95 13 2.9 37.1
14:05 1022 30.18 851 25.13 35 95 13 3.1 37.6
14:10 1022 30.18 851 25.13 34.8 94.7 13 2.5 36.4
14:15 1021 30.15 851 25.13 35 95 13 2.8 37
14:20 1021 30.15 851 25.13 34.3 93.7 13 2 35.6
14:25 1021 30.15 851 25.13 34.8 94.6 13 2.3 36.1
14:30 1021 30.15 850 25.1 34.6 94.3 13 2.1 35.8
14:35 1021 30.15 850 25.1 34.6 94.2 13 2.6 36.7
14:40 1021 30.15 850 25.1 33.6 92.5 14 2.5 36.5
14:45 1021 30.15 850 25.1 34.3 93.8 13 2.5 36.5
14:50 1021 30.15 850 25.1 34.1 93.3 13 2.2 36
14:55 1021 30.15 850 25.1 33.6 92.4 13 2.2 36
15:00 1021 30.15 850 25.1 33.5 92.4 13 2.2 36
15:05 1021 30.15 850 25.1 33.7 92.7 13 2.4 36.3
15:10 1021 30.15 850 25.1 33.7 92.6 14 2.9 37.2
15:15 1021 30.15 850 25.1 33.9 93 14 2.6 36.7
15:20 1021 30.15 850 25.1 34.7 94.4 13 2.7 36.8
15:25 1021 30.15 850 25.1 34 93.2 13 2.1 35.7
15:30 1021 30.15 850 25.1 34.9 94.8 13 2.4 36.3
15:35 1021 30.15 850 25.1 35.1 95.2 13 2.7 36.9
15:40 1021 30.15 850 25.1 35.3 95.5 12 2.2 36
15:45 1021 30.15 850 25.1 35.1 95.1 13 2.8 37
15:50 1021 30.15 850 25.1 35.2 95.3 12 2.4 36.3
15:55 1021 30.15 850 25.1 35.3 95.6 12 2.4 36.2
16:00 1021 30.15 850 25.1 35.6 96.1 12 2.8 37.1
16:05 1021 30.15 850 25.1 35.7 96.2 13 3.4 38.1
16:10 1021 30.15 850 25.1 35.5 95.9 13 3.2 37.8
16:15 1021 30.15 850 25.1 35 95 13 2.6 36.6
16:20 1021 30.15 850 25.1 34.8 94.6 13 2.5 36.5
16:25 1020 30.12 850 25.1 34.2 93.5 14 3.1 37.5
16:30 1020 30.12 850 25.1 33.7 92.6 14 2.5 36.6
16:35 1020 30.12 850 25.1 34.3 93.8 13 2.6 36.8
16:40 1020 30.12 849 25.07 35 95 13 2.7 36.8
16:45 1020 30.12 849 25.07 34.6 94.3 13 2.9 37.1
16:50 1020 30.12 849 25.07 34.9 94.7 12 2.2 35.9
16:55 1020 30.12 849 25.07 35.1 95.2 13 3.4 38
17:00 1020 30.12 849 25.07 34.9 94.8 13 2.5 36.4
17:05 1020 30.12 849 25.07 34.9 94.7 13 3.1 37.5
17:10 1020 30.12 849 25.07 34.7 94.4 13 2.4 36.4
17:15 1020 30.12 849 25.07 33.9 93 13 2 35.6
17:20 1020 30.12 849 25.07 33.6 92.4 13 1.8 35.2
17:25 1020 30.12 849 25.07 33.6 92.5 13 2.3 36.2
17:30 1020 30.12 849 25.07 34.2 93.6 13 2.7 36.8
17:35 1020 30.12 849 25.07 34.7 94.4 13 2.7 36.8
17:40 1020 30.12 849 25.07 34.6 94.4 13 2.2 35.9
17:45 1020 30.12 849 25.07 34.7 94.4 12 2 35.6
17:50 1020 30.12 849 25.07 34.9 94.8 13 2.5 36.5
17:55 1020 30.12 849 25.07 34.3 93.7 13 2.5 36.5
18:00 1020 30.12 849 25.07 34.4 94 14 3.1 37.6
18:05 1020 30.12 849 25.07 34.6 94.3 13 2.8 37
18:10 1020 30.12 849 25.07 34.7 94.4 13 2.7 36.8
18:15 1020 30.12 849 25.07 34.1 93.4 13 2.5 36.6
18:20 1020 30.12 849 25.07 34.2 93.6 13 2.4 36.3
18:25 1020 30.12 849 25.07 34.4 94 13 2.8 37
18:30 1020 30.12 849 25.07 34.4 93.9 13 2.2 35.9
18:35 1020 30.12 849 25.07 34 93.2 13 2.5 36.4
18:40 1020 30.12 849 25.07 33.6 92.5 13 2.2 36
18:45 1020 30.12 849 25.07 33.4 92 13 2.1 35.7
18:50 1020 30.12 849 25.07 33 91.4 14 2.5 36.6
18:55 1020 30.12 849 25.07 32.7 90.9 18 5.3 41.6
19:00 1020 30.12 849 25.07 32.5 90.5 14 2.2 36
19:05 1020 30.12 849 25.07 32.4 90.2 14 2.3 36.1
19:10 1020 30.12 849 25.07 32.1 89.8 19 6 42.7
19:15 1020 30.12 849 25.07 31.5 88.7 26 10.3 50.6
19:20 1020 30.12 850 25.1 30.6 87.1 22 6.9 44.4
19:25 1020 30.12 850 25.1 30.3 86.6 23 7.1 44.7
19:30 1020 30.12 850 25.1 30 86.1 23 7.1 44.9
19:35 1020 30.12 850 25.1 29.8 85.7 24 7.3 45.2
19:40 1020 30.12 850 25.1 29.5 85.2 25 7.5 45.5
19:45 1020 30.12 850 25.1 29.2 84.6 25 7.6 45.7
19:50 1020 30.12 850 25.1 29 84.2 26 7.6 45.7
19:55 1020 30.12 850 25.1 28.8 83.8 26 7.8 46
20:00 1020 30.12 850 25.1 28.6 83.5 26 7.5 45.5
20:05 1020 30.12 850 25.1 28.6 83.5 26 7.6 45.7
20:10 1020 30.12 850 25.1 28.5 83.3 26 7.5 45.4
20:15 1021 30.15 850 25.1 28.5 83.2 26 7.4 45.3
20:20 1021 30.15 850 25.1 28.4 83.2 26 7.5 45.4
20:25 1021 30.15 850 25.1 28.4 83.1 26 7.3 45.1
20:30 1021 30.15 850 25.1 28.3 83 27 7.6 45.7
20:35 1021 30.15 850 25.1 28.1 82.6 27 7.5 45.4
20:40 1021 30.15 850 25.1 28.1 82.5 27 7.5 45.5
20:45 1021 30.15 850 25.1 28 82.4 27 7.4 45.3
20:50 1021 30.15 850 25.1 28 82.4 27 7.5 45.5
20:55 1021 30.15 850 25.1 27.8 82.1 27 7.4 45.4
21:00 1021 30.15 850 25.1 27.7 81.9 27 7.5 45.6
21:05 1021 30.15 850 25.1 27.6 81.7 28 7.5 45.5
21:10 1021 30.15 850 25.1 27.4 81.3 28 7.6 45.7
21:15 1021 30.15 850 25.1 27.1 80.8 28 7.4 45.3
21:20 1021 30.15 850 25.1 26.9 80.5 28 7 44.7
21:25 1021 30.15 850 25.1 26.7 80.1 27 6.7 44
21:30 1021 30.15 850 25.1 26.5 79.8 27 6.4 43.6
21:35 1021 30.15 850 25.1 26.4 79.5 28 6.8 44.2
21:40 1021 30.15 850 25.1 26.1 79.1 28 6.4 43.5
21:45 1021 30.15 850 25.1 25.9 78.7 29 6.8 44.2
21:50 1021 30.15 850 25.1 25.4 77.6 31 7.2 44.9
21:55 1021 30.15 850 25.1 24.9 76.9 31 7 44.6
22:00 1021 30.15 850 25.1 24.6 76.3 32 7 44.7
22:05 1021 30.15 850 25.1 24.5 76.1 32 7 44.5
22:10 1021 30.15 850 25.1 24.5 76.1 32 7.2 44.9
22:15 1021 30.15 850 25.1 24.2 75.5 33 7.1 44.8
22:20 1021 30.15 850 25.1 24.1 75.4 33 7.1 44.7
22:25 1021 30.15 850 25.1 24.1 75.5 33 7 44.6
22:30 1021 30.15 850 25.1 24.2 75.5 33 7.1 44.7
22:35 1021 30.15 850 25.1 24.1 75.3 35 7.8 46
22:40 1021 30.15 850 25.1 23.8 74.9 35 7.5 45.4
22:45 1021 30.15 850 25.1 23.6 74.4 36 7.8 46
22:50 1021 30.15 851 25.13 23.1 73.6 37 7.8 46
22:55 1021 30.15 851 25.13 23 73.4 36 7.3 45.1
23:00 1021 30.15 851 25.13 23.1 73.6 35 7.2 45
23:05 1021 30.15 851 25.13 23.2 73.8 34 6.8 44.2
23:10 1022 30.18 851 25.13 23.5 74.2 34 6.8 44.2
23:15 1022 30.18 851 25.13 23.4 74.2 34 6.7 44
23:20 1022 30.18 851 25.13 23.4 74.2 34 6.8 44.2
23:25 1022 30.18 851 25.13 23.2 73.8 34 6.9 44.4
23:30 1022 30.18 851 25.13 23 73.3 36 7.2 45
23:35 1022 30.18 851 25.13 22.7 72.9 35 6.8 44.2
23:40 1022 30.18 851 25.13 22.9 73.2 34 6.5 43.7
23:45 1022 30.18 851 25.13 23 73.5 34 6.6 43.9
23:50 1022 30.18 851 25.13 22.8 73.1 34 6.4 43.6
23:55 1022 30.18 851 25.13 22.8 73 34 6.5 43.7
24:00 1022 30.18 851 25.13 22.7 72.8 35 6.7 44.1